FGOVF LFRD-LFRD
Flight info
| Callsign | FGOVF |
|---|---|
| Flight time | 0h 9m |
| Altitude | 1500 |
| Route | LFRD |
| Aircraft | DR4/L-SDE2E3FGHIJ3J4J7RWXY/LB1 |
Departure
| Time | 2026-04-24 14:37 |
|---|---|
| Airport | Dinard Pleurtuit Saint-Malo airport (LFRD) |
Arrival
| Time | 2026-04-24 14:46 |
|---|---|
| Airport | Dinard Pleurtuit Saint-Malo airport (LFRD) |
| Time | Latitude | Longitude | Altitude | Speed | Heading |
|---|---|---|---|---|---|
| 2026-04-24 14:28 | 48.58798 | -2.07536 | 224 ft | 0 kts | 204° |
| 2026-04-24 14:32 | 48.57898 | -2.07765 | 220 ft | 0 kts | 350° |
| 2026-04-24 14:33 | 48.59772 | -2.08259 | 221 ft | 0 kts | 170° |
| 2026-04-24 14:35 | 48.59770 | -2.08259 | 221 ft | 4 kts | 170° |
| 2026-04-24 14:36 | 48.59513 | -2.08191 | 222 ft | 69 kts | 171° |
| 2026-04-24 14:36 | 48.58944 | -2.08078 | 329 ft | 90 kts | 170° |
| 2026-04-24 14:36 | 48.58284 | -2.07961 | 471 ft | 101 kts | 169° |
| 2026-04-24 14:36 | 48.57574 | -2.07828 | 637 ft | 103 kts | 168° |
| 2026-04-24 14:37 | 48.56905 | -2.07608 | 858 ft | 92 kts | 136° |
| 2026-04-24 14:37 | 48.56640 | -2.06804 | 1049 ft | 86 kts | 97° |
| 2026-04-24 14:37 | 48.56574 | -2.05877 | 1122 ft | 92 kts | 90° |
| 2026-04-24 14:37 | 48.56551 | -2.04932 | 1093 ft | 87 kts | 86° |
| 2026-04-24 14:38 | 48.56554 | -2.04023 | 1054 ft | 87 kts | 84° |
| 2026-04-24 14:38 | 48.56570 | -2.03140 | 1112 ft | 81 kts | 83° |
| 2026-04-24 14:38 | 48.56592 | -2.02276 | 1131 ft | 83 kts | 85° |
| 2026-04-24 14:38 | 48.56634 | -2.01396 | 1157 ft | 86 kts | 83° |
| 2026-04-24 14:39 | 48.56692 | -2.00464 | 1132 ft | 94 kts | 82° |
| 2026-04-24 14:39 | 48.56952 | -1.99609 | 1126 ft | 94 kts | 34° |
| 2026-04-24 14:39 | 48.57564 | -1.99248 | 1065 ft | 96 kts | 15° |
| 2026-04-24 14:39 | 48.58220 | -1.99423 | 1043 ft | 103 kts | 332° |
| 2026-04-24 14:40 | 48.58763 | -2.00133 | 1039 ft | 102 kts | 330° |
| 2026-04-24 14:40 | 48.59333 | -2.00788 | 977 ft | 106 kts | 330° |
| 2026-04-24 14:40 | 48.59926 | -2.01378 | 947 ft | 98 kts | 343° |
| 2026-04-24 14:40 | 48.60546 | -2.01774 | 886 ft | 97 kts | 345° |
| 2026-04-24 14:41 | 48.61182 | -2.02111 | 829 ft | 98 kts | 349° |
| 2026-04-24 14:41 | 48.61832 | -2.02405 | 835 ft | 96 kts | 350° |
| 2026-04-24 14:41 | 48.62461 | -2.02677 | 811 ft | 94 kts | 341° |
| 2026-04-24 14:41 | 48.63032 | -2.03247 | 719 ft | 100 kts | 327° |
| 2026-04-24 14:42 | 48.63647 | -2.03704 | 616 ft | 101 kts | 348° |
| 2026-04-24 14:42 | 48.64336 | -2.03794 | 562 ft | 99 kts | 1° |
| 2026-04-24 14:42 | 48.64995 | -2.03860 | 642 ft | 95 kts | 327° |
| 2026-04-24 14:42 | 48.65057 | -2.04903 | 651 ft | 112 kts | 263° |
| 2026-04-24 14:43 | 48.64861 | -2.06017 | 697 ft | 108 kts | 254° |
| 2026-04-24 14:43 | 48.64566 | -2.07087 | 669 ft | 110 kts | 250° |
| 2026-04-24 14:43 | 48.64261 | -2.08009 | 909 ft | 97 kts | 245° |
| 2026-04-24 14:43 | 48.63889 | -2.08920 | 924 ft | 107 kts | 223° |
| 2026-04-24 14:44 | 48.63213 | -2.09244 | 932 ft | 102 kts | 173° |
| 2026-04-24 14:44 | 48.62780 | -2.09183 | 924 ft | 96 kts | 164° |
| 2026-04-24 14:44 | 48.62407 | -2.09112 | 916 ft | 80 kts | 159° |
| 2026-04-24 14:44 | 48.61884 | -2.08955 | 804 ft | 74 kts | 155° |
| 2026-04-24 14:45 | 48.61376 | -2.08759 | 695 ft | 78 kts | 150° |
| 2026-04-24 14:45 | 48.60837 | -2.08553 | 561 ft | 80 kts | 159° |
| 2026-04-24 14:45 | 48.60289 | -2.08409 | 399 ft | 80 kts | 161° |
| 2026-04-24 14:45 | 48.59738 | -2.08250 | 264 ft | 79 kts | 164° |
| 2026-04-24 14:46 | 48.59285 | -2.08133 | 223 ft | 55 kts | 166° |
| 2026-04-24 14:46 | 48.59211 | -2.07847 | 224 ft | 22 kts | 91° |
| 2026-04-24 14:46 | 48.59196 | -2.07797 | 224 ft | 0 kts | 167° |